PN53 weather

Strohmier Airport
Loretto, Pennsylvania, United States

Public forecast

Using degrees Fahrenheit for public forecast. Weather courtesy of forecast.io.

METAR (pilot weather report)

Closest report is John Murtha Johnstown Cambria County Airport, 17.1 nm (31.7 km) SW. Retrieved 2019/05/27 11:54 UTC (38 minutes ago):

KJST 271154Z AUTO 31006KT 9SM BKN008 BKN014 OVC031 17/14 A3006 RMK AO2 CIG 006V011 SLP170 60000 70014 T01670144 10172 20156 53018

TAF (pilot weather forecast)

Closest forecast is John Murtha Johnstown Cambria County Airport, 17.1 nm (31.7 km) SW. Retrieved 2019/05/27 12:54 UTC (0 seconds ago):

TAF KJST 271152Z 2712/2812 29004KT P6SM BKN008 OVC030 FM271400 VRB03KT P6SM SCT040 FM272100 30005KT P6SM FEW250 FM281000 20008KT 4SM -SHRA OVC040 WS020/26045KT